Time;durP1;ratioP1;P1;durP2;ratioP2;P2;SDS_P1;SDS_P2;PMS_P1;PMS_P2;Temp;Humidity;BMP_temperature;BMP_pressure;BME280_temperature;BME280_humidity;BME280_pressure;Samples;Min_cycle;Max_cycle;Signal;HPM_P1;HPM_P2
2023/03/17 00:00:21;;;;;;;59.70;40.20;;;4.40;71.00;;;;;;5056867;28;20116;-67
2023/03/17 00:02:48;;;;;;;56.78;35.20;;;4.30;70.00;;;;;;5056734;28;20017;-63
2023/03/17 00:05:14;;;;;;;85.20;50.42;;;4.10;70.60;;;;;;5056881;28;20361;-67
2023/03/17 00:07:40;;;;;;;83.70;50.88;;;4.10;72.20;;;;;;5056641;28;20100;-64
2023/03/17 00:10:12;;;;;;;68.72;43.13;;;3.90;74.00;;;;;;5056852;28;20417;-62
2023/03/17 00:12:38;;;;;;;74.63;45.58;;;3.80;74.90;;;;;;5056608;28;20023;-61
2023/03/17 00:15:04;;;;;;;93.93;57.80;;;3.90;74.70;;;;;;5056700;28;20029;-67
2023/03/17 00:17:30;;;;;;;100.70;59.17;;;3.90;75.20;;;;;;5056374;28;20024;-63
2023/03/17 00:19:56;;;;;;;86.72;53.92;;;3.70;76.10;;;;;;5056962;28;20021;-65
2023/03/17 00:22:22;;;;;;;75.97;48.03;;;3.60;77.50;;;;;;5056474;28;20387;-65
2023/03/17 00:24:47;;;;;;;80.13;50.03;;;3.60;77.60;;;;;;5056675;28;20025;-69
2023/03/17 00:27:14;;;;;;;63.25;39.70;;;3.70;77.50;;;;;;5056286;28;20360;-63
2023/03/17 00:29:40;;;;;;;53.08;33.83;;;3.70;76.80;;;;;;5056408;28;20032;-67
2023/03/17 00:32:19;;;;;;;48.67;31.80;;;3.80;75.90;;;;;;5056557;28;20021;-65
2023/03/17 00:34:45;;;;;;;44.17;29.38;;;3.90;75.00;;;;;;5056055;28;20420;-63
2023/03/17 00:37:11;;;;;;;42.95;29.40;;;3.90;74.80;;;;;;5056322;28;20056;-66
2023/03/17 00:39:38;;;;;;;37.70;25.33;;;4.00;74.20;;;;;;5055952;28;20029;-62
2023/03/17 00:42:08;;;;;;;34.05;24.02;;;3.90;74.60;;;;;;5056042;28;20025;-71
2023/03/17 00:44:34;;;;;;;34.70;23.58;;;3.90;75.10;;;;;;5056400;28;20020;-62
2023/03/17 00:47:00;;;;;;;32.28;21.02;;;3.90;75.10;;;;;;5056146;28;20021;-63
2023/03/17 00:49:26;;;;;;;35.03;21.70;;;3.90;74.30;;;;;;5055884;28;20068;-63
2023/03/17 00:51:53;;;;;;;29.67;19.38;;;3.90;73.80;;;;;;5055856;28;20036;-63
2023/03/17 00:54:19;;;;;;;28.15;18.95;;;3.90;73.80;;;;;;5056099;28;20463;-64
2023/03/17 00:56:46;;;;;;;32.55;20.63;;;3.90;74.40;;;;;;5055859;28;20032;-67
2023/03/17 00:59:19;;;;;;;38.47;25.60;;;3.90;74.80;;;;;;5055952;28;20021;-66
2023/03/17 01:01:45;;;;;;;45.13;27.42;;;3.90;74.50;;;;;;5055565;28;20506;-68
2023/03/17 01:04:11;;;;;;;33.00;23.05;;;3.80;75.00;;;;;;5055908;28;20104;-65
2023/03/17 01:06:36;;;;;;;38.50;24.85;;;3.80;75.10;;;;;;5055662;28;20052;-67
2023/03/17 01:09:03;;;;;;;44.42;27.17;;;3.80;74.30;;;;;;5055442;28;20083;-70
2023/03/17 01:11:29;;;;;;;44.67;27.25;;;3.70;74.40;;;;;;5055497;28;20036;-67
2023/03/17 01:13:55;;;;;;;32.83;21.48;;;3.50;75.10;;;;;;5055517;28;20028;-65
2023/03/17 01:16:22;;;;;;;35.45;23.15;;;3.40;76.10;;;;;;5055673;28;20021;-66
2023/03/17 01:18:48;;;;;;;28.02;19.50;;;3.30;76.50;;;;;;5055554;28;20368;-68
2023/03/17 01:21:14;;;;;;;28.33;19.30;;;3.40;76.60;;;;;;5055395;28;20021;-68
2023/03/17 01:23:41;;;;;;;27.50;18.58;;;3.40;76.10;;;;;;5055192;28;20021;-63
2023/03/17 01:26:06;;;;;;;25.60;18.45;;;3.50;77.00;;;;;;5055262;28;20100;-67
2023/03/17 01:28:33;;;;;;;28.20;18.45;;;3.50;76.90;;;;;;5055536;28;20143;-69
2023/03/17 01:30:59;;;;;;;28.35;19.85;;;3.50;76.00;;;;;;5054973;28;20044;-66
2023/03/17 01:33:25;;;;;;;25.02;16.58;;;3.40;75.80;;;;;;5055200;28;20025;-65
2023/03/17 01:35:51;;;;;;;25.15;17.45;;;3.40;77.00;;;;;;5054913;28;20045;-68
2023/03/17 01:38:17;;;;;;;24.45;17.45;;;3.40;76.70;;;;;;5055136;28;20075;-71
2023/03/17 01:40:49;;;;;;;23.92;17.75;;;3.30;76.50;;;;;;5054836;28;20545;-68
2023/03/17 01:43:24;;;;;;;26.23;18.48;;;3.40;76.40;;;;;;5055097;28;20100;-69
2023/03/17 01:46:12;;;;;;;41.63;27.13;;;3.40;76.50;;;;;;5054654;28;20143;-64
2023/03/17 01:48:41;;;;;;;33.42;23.33;;;3.30;77.00;;;;;;5054841;28;20044;-65
2023/03/17 01:51:13;;;;;;;30.17;20.65;;;3.10;77.90;;;;;;5054625;28;20502;-68
2023/03/17 01:53:40;;;;;;;30.70;20.95;;;3.10;78.70;;;;;;5054694;28;20035;-66
2023/03/17 01:56:07;;;;;;;30.02;20.80;;;3.20;78.70;;;;;;5055002;28;20103;-69
2023/03/17 01:58:33;;;;;;;25.23;18.13;;;3.20;79.00;;;;;;5054519;28;20029;-61
2023/03/17 02:01:00;;;;;;;26.95;18.23;;;3.20;78.00;;;;;;5054861;28;20025;-63
2023/03/17 02:03:26;;;;;;;30.50;19.63;;;3.20;77.60;;;;;;5054457;28;20478;-64
2023/03/17 02:05:53;;;;;;;24.15;16.40;;;3.20;77.20;;;;;;5054349;28;20116;-63
2023/03/17 02:08:19;;;;;;;20.08;14.05;;;3.20;77.60;;;;;;5054562;28;20017;-66
2023/03/17 02:10:48;;;;;;;24.10;15.35;;;3.20;77.80;;;;;;5054263;28;20037;-68
2023/03/17 02:13:15;;;;;;;21.27;14.70;;;3.20;77.90;;;;;;5054771;28;20391;-63
2023/03/17 02:15:50;;;;;;;22.58;14.50;;;3.20;77.80;;;;;;5054585;28;20386;-71
2023/03/17 02:18:18;;;;;;;23.15;15.88;;;3.20;78.10;;;;;;5053810;28;20029;-63
2023/03/17 02:20:47;;;;;;;21.52;14.88;;;3.10;77.60;;;;;;5054294;28;20094;-67
2023/03/17 02:23:22;;;;;;;19.58;13.98;;;3.10;77.90;;;;;;5054133;28;20491;-66
2023/03/17 02:25:50;;;;;;;17.27;12.13;;;3.10;78.10;;;;;;5054253;28;20482;-63
2023/03/17 02:28:24;;;;;;;18.40;12.65;;;3.10;77.50;;;;;;5054090;28;20021;-69
2023/03/17 02:30:51;;;;;;;16.98;12.32;;;3.10;77.10;;;;;;5054183;28;20387;-63
2023/03/17 02:33:17;;;;;;;19.92;14.55;;;3.00;77.40;;;;;;5054291;28;20428;-68
2023/03/17 02:35:43;;;;;;;18.38;12.70;;;3.00;77.60;;;;;;5053689;28;20033;-64
2023/03/17 02:38:09;;;;;;;16.63;12.02;;;3.00;78.70;;;;;;5053866;28;20502;-69
2023/03/17 02:40:35;;;;;;;16.65;11.95;;;3.00;79.00;;;;;;5053638;28;20033;-70
2023/03/17 02:43:01;;;;;;;17.58;12.35;;;3.00;78.50;;;;;;5053912;28;20028;-68
2023/03/17 02:45:27;;;;;;;16.58;12.38;;;2.80;79.00;;;;;;5054125;28;20026;-65
2023/03/17 02:47:54;;;;;;;18.52;13.25;;;2.80;79.10;;;;;;5053670;28;20021;-66
2023/03/17 02:50:23;;;;;;;17.02;11.55;;;2.80;78.70;;;;;;5053607;28;20432;-65
2023/03/17 02:52:50;;;;;;;16.67;11.07;;;2.80;79.60;;;;;;5053970;28;20416;-66
2023/03/17 02:55:16;;;;;;;14.93;10.85;;;2.80;79.20;;;;;;5053821;28;20044;-65
2023/03/17 02:57:42;;;;;;;16.80;10.68;;;2.80;78.90;;;;;;5053400;28;20021;-68
2023/03/17 03:00:09;;;;;;;15.95;10.85;;;2.80;78.80;;;;;;5053514;28;20021;-70
2023/03/17 03:02:36;;;;;;;18.45;11.55;;;2.80;78.40;;;;;;5053700;28;20031;-68
2023/03/17 03:05:02;;;;;;;13.43;9.77;;;2.70;78.10;;;;;;5053510;28;20444;-65
2023/03/17 03:07:28;;;;;;;20.48;13.95;;;2.80;78.40;;;;;;5053849;28;20029;-67
2023/03/17 03:09:54;;;;;;;12.98;10.43;;;2.70;78.30;;;;;;5053238;28;20025;-67
2023/03/17 03:12:20;;;;;;;16.08;10.52;;;2.70;78.90;;;;;;5053679;28;20025;-67
2023/03/17 03:14:46;;;;;;;15.48;10.88;;;2.60;79.60;;;;;;5053273;28;20054;-67
2023/03/17 03:17:12;;;;;;;17.40;11.40;;;2.60;79.60;;;;;;5053624;28;20025;-65
2023/03/17 03:19:38;;;;;;;22.25;15.00;;;2.60;80.10;;;;;;5053210;28;20475;-67
2023/03/17 03:22:05;;;;;;;17.45;12.20;;;2.60;80.20;;;;;;5053441;28;20029;-65
2023/03/17 03:24:31;;;;;;;16.17;10.77;;;2.50;80.80;;;;;;5053181;28;20463;-63
2023/03/17 03:26:57;;;;;;;15.38;10.45;;;2.50;81.30;;;;;;5053394;28;20021;-68
2023/03/17 03:29:22;;;;;;;11.85;9.10;;;2.50;80.50;;;;;;5053200;28;20029;-65
2023/03/17 03:31:48;;;;;;;16.23;10.52;;;2.50;79.80;;;;;;5055968;28;20063;-67
2023/03/17 03:34:15;;;;;;;16.58;10.65;;;2.40;79.80;;;;;;5057627;28;20095;-68
2023/03/17 03:36:40;;;;;;;14.45;10.57;;;2.40;80.30;;;;;;5057245;28;20470;-62
2023/03/17 03:39:07;;;;;;;16.98;11.35;;;2.40;80.70;;;;;;5057209;28;20167;-70
2023/03/17 03:41:33;;;;;;;15.45;12.20;;;2.40;79.50;;;;;;5057338;28;20365;-64
2023/03/17 03:43:59;;;;;;;12.93;9.38;;;2.40;80.20;;;;;;5057502;28;20032;-66
2023/03/17 03:46:25;;;;;;;12.38;9.50;;;2.30;80.80;;;;;;5057554;28;20441;-72
2023/03/17 03:48:52;;;;;;;12.40;8.57;;;2.30;80.50;;;;;;5057028;28;20017;-65
2023/03/17 03:51:17;;;;;;;15.32;10.10;;;2.30;80.60;;;;;;5056840;28;20475;-69
2023/03/17 03:53:43;;;;;;;13.18;8.45;;;2.30;79.80;;;;;;5056898;28;20097;-65
2023/03/17 03:56:09;;;;;;;13.88;10.43;;;2.30;80.30;;;;;;5057604;28;20032;-68
2023/03/17 03:58:35;;;;;;;11.68;8.30;;;2.30;79.50;;;;;;5056916;28;20068;-65
2023/03/17 04:01:08;;;;;;;12.50;8.98;;;2.20;80.00;;;;;;5056882;28;20075;-63
2023/03/17 04:03:35;;;;;;;12.27;8.68;;;2.30;80.10;;;;;;5056727;28;20522;-67
2023/03/17 04:06:02;;;;;;;11.90;8.30;;;2.20;80.40;;;;;;5057170;28;20037;-68
2023/03/17 04:08:28;;;;;;;12.18;9.05;;;2.10;81.00;;;;;;5056636;28;20471;-66
2023/03/17 04:10:55;;;;;;;12.50;8.95;;;2.10;80.70;;;;;;5056921;28;20521;-68
2023/03/17 04:13:21;;;;;;;11.65;8.00;;;2.10;80.80;;;;;;5056611;28;20103;-66
2023/03/17 04:15:47;;;;;;;10.88;7.40;;;2.10;81.00;;;;;;5056521;28;20477;-67
2023/03/17 04:18:13;;;;;;;12.95;8.57;;;2.10;81.70;;;;;;5056978;28;20104;-70
2023/03/17 04:20:38;;;;;;;17.65;12.88;;;2.10;81.00;;;;;;5056514;28;20099;-67
2023/03/17 04:23:04;;;;;;;15.43;10.60;;;2.10;81.00;;;;;;5056449;28;20032;-67
2023/03/17 04:25:31;;;;;;;13.40;9.82;;;2.00;81.30;;;;;;5056662;28;20017;-66
2023/03/17 04:27:57;;;;;;;14.60;10.25;;;2.00;81.60;;;;;;5056319;28;20060;-68
2023/03/17 04:30:22;;;;;;;11.07;8.70;;;2.00;81.90;;;;;;5056861;28;20071;-66
2023/03/17 04:32:48;;;;;;;12.70;9.68;;;2.00;81.60;;;;;;5056297;28;20068;-62
2023/03/17 04:35:21;;;;;;;12.25;8.95;;;2.00;81.40;;;;;;5056199;28;20044;-63
2023/03/17 04:37:47;;;;;;;11.02;7.80;;;2.00;81.10;;;;;;5056067;28;20423;-69
2023/03/17 04:40:15;;;;;;;14.90;8.20;;;2.00;81.70;;;;;;5056216;28;20025;-64
2023/03/17 04:42:41;;;;;;;10.45;7.90;;;2.00;81.90;;;;;;5055442;28;20021;-71
2023/03/17 04:45:10;;;;;;;9.40;7.38;;;2.00;81.30;;;;;;5056403;28;20028;-62
2023/03/17 04:47:36;;;;;;;10.02;7.53;;;2.00;81.10;;;;;;5055961;28;20032;-66
2023/03/17 04:50:02;;;;;;;10.02;7.25;;;2.00;80.80;;;;;;5055652;28;20115;-65
2023/03/17 04:52:28;;;;;;;8.40;6.93;;;2.00;81.20;;;;;;5056006;28;20508;-61
2023/03/17 04:54:54;;;;;;;9.68;7.13;;;2.00;80.90;;;;;;5055909;28;20112;-68
2023/03/17 04:57:21;;;;;;;9.65;7.25;;;2.00;80.60;;;;;;5055909;28;20049;-66
2023/03/17 04:59:46;;;;;;;13.02;9.43;;;2.00;80.60;;;;;;5055683;28;20083;-66
2023/03/17 05:02:12;;;;;;;15.32;10.10;;;2.00;80.30;;;;;;5055837;28;20021;-62
2023/03/17 05:04:38;;;;;;;12.23;7.85;;;2.00;80.00;;;;;;5055555;28;20100;-63
2023/03/17 05:07:04;;;;;;;13.93;9.43;;;2.00;80.40;;;;;;5055677;28;20111;-66
2023/03/17 05:09:30;;;;;;;15.13;9.77;;;1.90;80.30;;;;;;5055587;28;20029;-63
2023/03/17 05:11:55;;;;;;;15.20;9.85;;;1.90;81.80;;;;;;5055436;28;20020;-65
2023/03/17 05:14:21;;;;;;;13.75;10.35;;;1.90;81.30;;;;;;5055651;28;20051;-67
2023/03/17 05:16:47;;;;;;;12.95;9.07;;;1.90;81.30;;;;;;5055468;28;20028;-67
2023/03/17 05:19:13;;;;;;;15.65;10.10;;;1.90;81.00;;;;;;5055430;28;20032;-67
2023/03/17 05:21:39;;;;;;;15.60;11.27;;;2.00;81.00;;;;;;5055593;28;20371;-62
2023/03/17 05:24:05;;;;;;;16.77;10.45;;;2.00;80.70;;;;;;5055652;28;20387;-66
2023/03/17 05:26:31;;;;;;;15.93;11.20;;;2.00;80.80;;;;;;5055176;28;20025;-66
2023/03/17 05:28:57;;;;;;;17.90;11.73;;;2.00;81.40;;;;;;5055219;28;20029;-64
2023/03/17 05:31:22;;;;;;;17.55;11.93;;;2.00;81.40;;;;;;5055418;28;20025;-69
2023/03/17 05:33:49;;;;;;;17.17;11.07;;;2.00;81.10;;;;;;5054916;28;20124;-67
2023/03/17 05:36:15;;;;;;;18.10;11.85;;;2.00;81.30;;;;;;5055085;28;20047;-70
2023/03/17 05:38:41;;;;;;;18.33;11.98;;;2.00;81.00;;;;;;5055242;28;20374;-61
2023/03/17 05:41:07;;;;;;;19.45;11.55;;;2.10;81.40;;;;;;5055164;28;20386;-67
2023/03/17 05:43:33;;;;;;;17.17;11.02;;;2.00;81.40;;;;;;5054952;28;20100;-66
2023/03/17 05:45:59;;;;;;;14.75;10.60;;;2.10;81.90;;;;;;5054911;28;20059;-62
2023/03/17 05:48:25;;;;;;;12.93;9.68;;;2.20;82.40;;;;;;5054913;28;20402;-66
2023/03/17 05:50:51;;;;;;;13.50;9.45;;;2.20;82.10;;;;;;5054789;28;20029;-68
2023/03/17 05:53:17;;;;;;;17.90;11.52;;;2.30;82.40;;;;;;5054021;28;20087;-64
2023/03/17 05:55:43;;;;;;;24.17;15.40;;;2.30;82.00;;;;;;5054548;28;20074;-66
2023/03/17 05:58:09;;;;;;;21.48;14.63;;;2.30;82.50;;;;;;5053441;28;20413;-68
2023/03/17 06:00:35;;;;;;;52.10;32.05;;;2.50;82.10;;;;;;5040166;28;20430;-63
2023/03/17 06:03:02;;;;;;;200.25;118.95;;;2.50;82.20;;;;;;5034962;28;20025;-64
2023/03/17 06:05:29;;;;;;;223.55;135.10;;;2.30;85.00;;;;;;5033587;28;20691;-69
2023/03/17 06:07:55;;;;;;;211.68;126.35;;;2.10;87.00;;;;;;5034152;28;20487;-64
2023/03/17 06:10:21;;;;;;;192.45;119.85;;;2.10;88.70;;;;;;5033358;28;20514;-67
2023/03/17 06:12:47;;;;;;;204.00;130.02;;;2.00;89.50;;;;;;5032728;28;20022;-64
2023/03/17 06:15:13;;;;;;;169.93;109.60;;;2.10;90.20;;;;;;5034423;28;20022;-68
2023/03/17 06:17:38;;;;;;;130.95;85.97;;;2.10;90.20;;;;;;5034285;28;20018;-67
2023/03/17 06:20:04;;;;;;;113.70;76.60;;;2.30;89.50;;;;;;5033171;28;20033;-68
2023/03/17 06:22:31;;;;;;;98.72;64.82;;;2.50;88.80;;;;;;5034329;28;20057;-65
2023/03/17 06:24:57;;;;;;;95.90;61.63;;;2.80;86.70;;;;;;5034137;28;20053;-64
2023/03/17 06:27:23;;;;;;;98.00;65.97;;;3.00;85.60;;;;;;5034013;28;20048;-68
2023/03/17 06:29:48;;;;;;;153.32;92.00;;;4.30;84.30;;;;;;5033932;28;20433;-70
2023/03/17 06:32:14;;;;;;;236.43;144.68;;;7.00;74.30;;;;;;5034430;28;20063;-66
2023/03/17 06:34:41;;;;;;;156.77;100.10;;;8.80;65.30;;;;;;5043609;28;20056;-60
2023/03/17 06:37:09;;;;;;;159.93;100.68;;;10.40;61.20;;;;;;5043477;28;20524;-62
2023/03/17 06:39:36;;;;;;;126.57;86.93;;;11.90;56.10;;;;;;5041753;28;20037;-71
2023/03/17 06:42:02;;;;;;;145.98;104.70;;;13.10;50.30;;;;;;5043670;28;20112;-65
2023/03/17 06:44:28;;;;;;;100.88;73.97;;;13.80;48.10;;;;;;5042359;28;20021;-67
2023/03/17 06:46:55;;;;;;;124.25;90.93;;;14.30;47.20;;;;;;5042310;28;20052;-66
2023/03/17 06:49:21;;;;;;;143.85;107.47;;;15.20;45.10;;;;;;5044325;28;20036;-69
2023/03/17 06:51:47;;;;;;;145.38;106.65;;;16.20;43.30;;;;;;5043689;28;20026;-67
2023/03/17 06:54:13;;;;;;;121.53;89.30;;;16.40;42.00;;;;;;5038735;28;20021;-68
2023/03/17 06:56:38;;;;;;;117.82;87.63;;;16.60;42.10;;;;;;5041509;28;20471;-69
2023/03/17 06:59:04;;;;;;;97.00;70.78;;;17.40;41.00;;;;;;5037854;28;20040;-62
2023/03/17 07:01:30;;;;;;;74.72;57.75;;;17.80;39.00;;;;;;5045234;28;20032;-69
2023/03/17 07:03:56;;;;;;;64.70;50.25;;;17.90;38.50;;;;;;5043865;28;20053;-67
2023/03/17 07:06:22;;;;;;;56.10;45.40;;;18.50;38.10;;;;;;5046976;28;20434;-63
2023/03/17 07:08:49;;;;;;;52.35;42.72;;;19.40;36.90;;;;;;5051262;28;20150;-67
2023/03/17 07:11:15;;;;;;;56.05;42.60;;;19.90;36.80;;;;;;5050938;28;20045;-66
2023/03/17 07:13:41;;;;;;;65.70;50.38;;;20.80;36.10;;;;;;5052636;28;20075;-67
2023/03/17 07:16:08;;;;;;;71.28;52.47;;;21.30;34.30;;;;;;5033305;28;20030;-69
2023/03/17 07:18:34;;;;;;;64.88;49.60;;;20.80;34.80;;;;;;5035745;28;20029;-69
2023/03/17 07:21:01;;;;;;;55.13;44.05;;;21.00;34.30;;;;;;5053129;28;20028;-62
2023/03/17 07:23:28;;;;;;;48.28;39.03;;;21.70;33.60;;;;;;5042250;28;20035;-61
2023/03/17 07:25:56;;;;;;;45.60;36.55;;;22.70;32.60;;;;;;5040549;28;20475;-72
2023/03/17 07:28:23;;;;;;;36.10;31.80;;;23.70;31.60;;;;;;5034214;28;20033;-67
2023/03/17 07:30:49;;;;;;;42.30;35.33;;;24.50;30.50;;;;;;5034038;28;20039;-67
2023/03/17 07:33:16;;;;;;;38.25;31.95;;;24.60;30.00;;;;;;5040033;28;20060;-61
2023/03/17 07:35:43;;;;;;;31.50;28.13;;;24.70;30.50;;;;;;5040335;28;20369;-68
2023/03/17 07:38:09;;;;;;;30.20;26.80;;;25.00;29.20;;;;;;5035953;28;20020;-65
2023/03/17 07:40:35;;;;;;;27.15;24.23;;;25.70;29.10;;;;;;5036603;28;20021;-66
2023/03/17 07:43:01;;;;;;;28.55;24.95;;;25.90;28.70;;;;;;5049798;28;20021;-73
2023/03/17 07:45:27;;;;;;;28.63;25.52;;;26.00;28.30;;;;;;5040700;28;20352;-67
2023/03/17 07:47:53;;;;;;;27.23;23.10;;;25.40;28.20;;;;;;5034408;28;20036;-68
2023/03/17 07:50:19;;;;;;;22.02;19.83;;;25.40;28.30;;;;;;5041820;28;20033;-68
2023/03/17 07:52:46;;;;;;;18.08;16.20;;;25.50;27.90;;;;;;5041555;28;20032;-63
2023/03/17 07:55:12;;;;;;;19.05;17.05;;;25.90;28.10;;;;;;5043988;28;20021;-73
2023/03/17 07:57:38;;;;;;;17.35;15.57;;;26.60;27.40;;;;;;5039811;28;20025;-73
2023/03/17 08:00:09;;;;;;;15.43;13.70;;;27.10;27.40;;;;;;5042912;28;20101;-71
2023/03/17 08:02:36;;;;;;;15.07;13.57;;;27.70;26.90;;;;;;5046336;28;20029;-69
2023/03/17 08:05:03;;;;;;;13.43;12.02;;;27.40;26.70;;;;;;5051862;28;20025;-68
2023/03/17 08:07:30;;;;;;;12.93;10.60;;;27.40;26.40;;;;;;5050505;28;20029;-70
2023/03/17 08:09:56;;;;;;;12.95;11.63;;;27.40;26.90;;;;;;5045204;28;20472;-69
2023/03/17 08:12:23;;;;;;;10.57;9.57;;;27.20;26.10;;;;;;5031481;28;20017;-63
2023/03/17 08:14:49;;;;;;;10.98;9.88;;;27.10;26.60;;;;;;5030738;28;20025;-69
2023/03/17 08:17:15;;;;;;;12.65;11.07;;;27.40;26.50;;;;;;5032826;28;20100;-64
2023/03/17 08:19:41;;;;;;;15.20;13.65;;;28.10;25.60;;;;;;5034621;28;20135;-63
2023/03/17 08:22:07;;;;;;;15.20;13.70;;;27.50;26.70;;;;;;5040104;28;20017;-70
2023/03/17 08:24:33;;;;;;;13.55;12.25;;;27.10;26.90;;;;;;5056116;28;20036;-71
2023/03/17 08:26:59;;;;;;;12.82;11.55;;;26.80;26.10;;;;;;5056424;28;20147;-68
2023/03/17 08:29:25;;;;;;;12.95;11.73;;;27.10;26.40;;;;;;5056338;28;20041;-68
2023/03/17 08:31:50;;;;;;;12.73;11.50;;;27.30;25.80;;;;;;5053518;28;20486;-70
2023/03/17 08:34:16;;;;;;;12.07;10.88;;;27.00;25.80;;;;;;5048816;28;20017;-74
2023/03/17 08:36:42;;;;;;;12.95;11.50;;;26.80;26.60;;;;;;5047900;28;20053;-61
2023/03/17 08:39:09;;;;;;;10.57;9.48;;;26.60;25.80;;;;;;5041236;28;20471;-64
2023/03/17 08:41:36;;;;;;;11.50;10.13;;;26.40;25.90;;;;;;5036658;28;20450;-71
2023/03/17 08:44:02;;;;;;;13.60;12.15;;;26.80;26.60;;;;;;5039304;28;20113;-70
2023/03/17 08:46:31;;;;;;;12.25;11.02;;;26.60;26.30;;;;;;5043120;28;20383;-63
2023/03/17 08:48:58;;;;;;;12.00;10.90;;;26.40;27.60;;;;;;5044296;28;20053;-66
2023/03/17 08:51:27;;;;;;;11.13;9.98;;;26.00;26.30;;;;;;5046756;28;20059;-72
2023/03/17 08:53:54;;;;;;;10.80;9.73;;;25.90;26.80;;;;;;5036827;28;20026;-67
2023/03/17 08:56:20;;;;;;;10.98;9.90;;;25.80;26.20;;;;;;5042171;28;20037;-70
2023/03/17 08:58:47;;;;;;;9.98;8.77;;;25.50;26.40;;;;;;5048846;28;20024;-65
2023/03/17 09:01:14;;;;;;;11.18;10.07;;;25.00;27.40;;;;;;5044480;28;20017;-62
2023/03/17 09:03:40;;;;;;;10.52;9.43;;;24.30;27.40;;;;;;5038866;28;20041;-61
2023/03/17 09:06:08;;;;;;;10.43;9.45;;;24.10;26.80;;;;;;5043683;28;20013;-67
2023/03/17 09:08:37;;;;;;;9.18;8.15;;;23.40;27.40;;;;;;5045922;28;20025;-64
2023/03/17 09:11:04;;;;;;;9.35;8.43;;;23.00;27.80;;;;;;5032223;28;20025;-64
2023/03/17 09:13:30;;;;;;;10.55;9.45;;;22.80;28.00;;;;;;5045683;28;20037;-72
2023/03/17 09:15:56;;;;;;;11.15;10.05;;;22.40;27.40;;;;;;5044292;28;20491;-63
2023/03/17 09:18:21;;;;;;;10.13;9.13;;;21.50;27.70;;;;;;5046967;28;20022;-69
2023/03/17 09:20:47;;;;;;;9.40;8.43;;;20.70;28.60;;;;;;5033632;28;20031;-66
2023/03/17 09:23:13;;;;;;;7.18;6.43;;;19.70;28.60;;;;;;5036479;28;20051;-67
2023/03/17 09:25:42;;;;;;;6.20;5.53;;;19.40;29.70;;;;;;5043956;28;20115;-63
2023/03/17 09:28:12;;;;;;;5.30;4.68;;;19.20;28.70;;;;;;5038963;28;20112;-61
2023/03/17 09:30:43;;;;;;;4.38;3.97;;;19.10;30.00;;;;;;5045890;28;20109;-63
2023/03/17 09:33:10;;;;;;;4.68;4.10;;;18.80;29.00;;;;;;5051703;28;20028;-61
2023/03/17 09:35:43;;;;;;;4.15;3.75;;;18.60;31.50;;;;;;5045296;28;20037;-68
2023/03/17 09:38:10;;;;;;;4.45;3.95;;;18.30;30.00;;;;;;5043070;28;20021;-67
2023/03/17 09:40:48;;;;;;;4.50;4.05;;;18.30;31.80;;;;;;5043375;28;20023;-64
2023/03/17 09:43:20;;;;;;;5.45;4.55;;;18.50;29.60;;;;;;5046677;28;20047;-65
2023/03/17 09:45:46;;;;;;;4.95;4.45;;;18.30;29.30;;;;;;5039944;28;20032;-65
2023/03/17 09:48:47;;;;;;;6.30;4.88;;;18.50;28.90;;;;;;5028596;28;20510;-66
2023/03/17 09:51:40;;;;;;;5.47;4.65;;;18.90;27.80;;;;;;5034812;28;20055;-62
2023/03/17 09:54:37;;;;;;;5.45;4.80;;;18.80;28.40;;;;;;5040703;28;20097;-61
2023/03/17 09:57:16;;;;;;;5.28;4.78;;;19.00;29.10;;;;;;5042806;28;20032;-61
2023/03/17 09:59:49;;;;;;;5.30;4.80;;;19.40;29.40;;;;;;5029560;28;20030;-65
2023/03/17 10:02:24;;;;;;;5.80;4.95;;;19.90;29.30;;;;;;5029240;28;20021;-66
2023/03/17 10:04:50;;;;;;;6.40;5.70;;;20.10;28.40;;;;;;5044394;28;20033;-68
2023/03/17 10:07:22;;;;;;;5.35;4.85;;;20.10;27.70;;;;;;5038290;28;20047;-67
2023/03/17 10:10:01;;;;;;;5.40;4.90;;;20.20;28.20;;;;;;5039900;28;20045;-65
2023/03/17 10:12:41;;;;;;;5.60;5.00;;;20.20;27.40;;;;;;5030052;28;20033;-66
2023/03/17 10:15:44;;;;;;;4.55;4.15;;;19.80;27.20;;;;;;5038933;28;20068;-71
2023/03/17 10:18:15;;;;;;;4.60;4.10;;;19.30;28.30;;;;;;5050224;28;20028;-66
2023/03/17 10:20:58;;;;;;;5.57;4.80;;;19.20;29.60;;;;;;5035004;28;20087;-63
2023/03/17 10:23:28;;;;;;;5.25;4.75;;;19.20;29.30;;;;;;5042971;28;20471;-67
2023/03/17 10:25:58;;;;;;;4.88;4.38;;;19.30;29.10;;;;;;5049223;28;20029;-62
2023/03/17 10:28:34;;;;;;;3.42;3.13;;;19.40;29.60;;;;;;5051647;28;20029;-67
2023/03/17 10:31:11;;;;;;;4.60;4.20;;;19.80;28.40;;;;;;5047223;28;20574;-63
2023/03/17 10:33:37;;;;;;;5.75;5.15;;;20.40;27.70;;;;;;5053639;28;20079;-61
2023/03/17 10:36:08;;;;;;;4.45;4.05;;;20.50;26.90;;;;;;5037946;28;20045;-66
2023/03/17 10:38:34;;;;;;;5.53;4.32;;;20.60;28.50;;;;;;5036321;28;20068;-64
2023/03/17 10:41:08;;;;;;;4.13;3.75;;;20.30;28.20;;;;;;5036536;28;20106;-65
2023/03/17 10:43:49;;;;;;;3.30;3.00;;;20.20;28.30;;;;;;5041653;28;20210;-64
2023/03/17 10:46:24;;;;;;;3.00;2.80;;;20.60;28.10;;;;;;5038521;28;20718;-69
2023/03/17 10:48:54;;;;;;;3.25;2.95;;;20.70;29.00;;;;;;5037360;28;20032;-65
2023/03/17 10:51:29;;;;;;;3.00;2.80;;;20.70;30.00;;;;;;5042372;28;20065;-60
2023/03/17 10:53:58;;;;;;;3.72;2.90;;;21.10;27.80;;;;;;5036250;28;20039;-66
2023/03/17 10:56:28;;;;;;;3.67;3.20;;;21.20;27.00;;;;;;5031242;28;20039;-67
2023/03/17 10:58:55;;;;;;;3.88;3.53;;;20.40;27.80;;;;;;5033720;28;20033;-66
2023/03/17 11:01:38;;;;;;;3.05;2.70;;;20.20;28.40;;;;;;5037372;28;20017;-67
2023/03/17 11:04:34;;;;;;;2.97;2.78;;;19.70;28.30;;;;;;5034387;28;20028;-69
2023/03/17 11:07:18;;;;;;;3.28;2.97;;;19.60;28.20;;;;;;5049553;28;20044;-67
2023/03/17 11:09:49;;;;;;;3.42;2.88;;;19.00;27.90;;;;;;5045063;28;20042;-65
2023/03/17 11:12:27;;;;;;;2.67;2.17;;;19.20;29.80;;;;;;5038497;28;20112;-67
2023/03/17 11:15:04;;;;;;;3.05;2.75;;;20.00;26.60;;;;;;5035355;28;20030;-64
2023/03/17 11:17:59;;;;;;;2.50;2.30;;;20.40;27.20;;;;;;5036020;28;20033;-69
2023/03/17 11:20:46;;;;;;;2.60;2.38;;;20.50;29.70;;;;;;5032993;28;20387;-70
2023/03/17 11:23:37;;;;;;;4.13;3.03;;;20.70;30.40;;;;;;5042551;28;20483;-64
2023/03/17 11:26:26;;;;;;;3.33;2.58;;;21.00;28.50;;;;;;5038767;28;20037;-61
2023/03/17 11:29:43;;;;;;;2.72;2.53;;;21.10;27.10;;;;;;5034076;28;20109;-61
2023/03/17 11:32:35;;;;;;;4.50;3.40;;;20.80;27.60;;;;;;5025606;28;20063;-69
2023/03/17 11:35:23;;;;;;;3.58;3.25;;;20.40;27.40;;;;;;5034853;28;20192;-70
2023/03/17 11:38:04;;;;;;;3.40;3.10;;;20.50;27.30;;;;;;5040806;28;20032;-74
2023/03/17 11:41:17;;;;;;;3.72;2.85;;;21.10;26.80;;;;;;5039444;28;20083;-66
2023/03/17 11:44:09;;;;;;;2.60;2.33;;;20.60;25.60;;;;;;5048252;28;20056;-72
2023/03/17 11:46:43;;;;;;;2.88;2.47;;;20.10;26.60;;;;;;5047351;28;20104;-69
2023/03/17 11:49:21;;;;;;;7.47;5.18;;;19.90;27.70;;;;;;5048702;28;20025;-67
2023/03/17 11:51:55;;;;;;;4.57;3.60;;;19.30;28.20;;;;;;5050899;28;20057;-68
2023/03/17 11:54:53;;;;;;;3.30;2.60;;;19.00;27.50;;;;;;5052573;28;20387;-67
2023/03/17 11:57:37;;;;;;;2.70;2.40;;;19.00;26.50;;;;;;5052789;28;20032;-63
2023/03/17 12:00:15;;;;;;;;;;;19.10;29.30;;;;;;5034055;28;20033;-65
2023/03/17 12:03:03;;;;;;;2.17;1.98;;;19.60;29.80;;;;;;5032218;28;19905;-72
2023/03/17 12:05:30;;;;;;;2.58;2.10;;;20.20;27.80;;;;;;5032674;28;20021;-67
2023/03/17 12:08:00;;;;;;;2.10;1.90;;;20.50;28.80;;;;;;5041259;28;20063;-69
2023/03/17 12:10:35;;;;;;;1.92;1.60;;;21.10;29.30;;;;;;5046388;28;20041;-66
2023/03/17 12:13:24;;;;;;;3.92;2.60;;;21.50;27.80;;;;;;5052893;28;20047;-70
2023/03/17 12:16:10;;;;;;;2.25;1.95;;;21.50;26.80;;;;;;5053692;28;20021;-69
2023/03/17 12:18:55;;;;;;;2.15;1.92;;;21.20;28.10;;;;;;5033106;28;20036;-68
2023/03/17 12:21:40;;;;;;;3.45;2.28;;;21.10;26.10;;;;;;5043573;28;20056;-65
2023/03/17 12:24:10;;;;;;;2.60;2.35;;;20.50;26.80;;;;;;5035416;28;20092;-62
2023/03/17 12:26:42;;;;;;;2.20;2.00;;;20.20;26.30;;;;;;5034387;28;20030;-60
2023/03/17 12:29:28;;;;;;;2.10;2.00;;;20.00;25.10;;;;;;5038484;28;20028;-62
2023/03/17 12:32:02;;;;;;;2.38;1.67;;;20.30;26.60;;;;;;5045468;28;20484;-64
2023/03/17 12:34:30;;;;;;;;;;;20.90;27.40;;;;;;5043277;28;20025;-62
2023/03/17 12:36:57;;;;;;;2.20;2.00;;;21.20;24.30;;;;;;5041594;28;20298;-65
2023/03/17 12:39:28;;;;;;;1.95;1.77;;;21.20;25.00;;;;;;5041885;28;20017;-60
2023/03/17 12:42:06;;;;;;;1.65;1.55;;;21.50;25.30;;;;;;5039980;28;20029;-64
2023/03/17 12:44:59;;;;;;;1.83;1.73;;;21.70;26.30;;;;;;5038944;28;20021;-64
2023/03/17 12:47:48;;;;;;;2.20;2.00;;;22.20;25.50;;;;;;5042659;28;20029;-65
2023/03/17 12:50:23;;;;;;;2.33;2.13;;;22.60;24.60;;;;;;5036215;28;20060;-67